sensor_id;sensor_type;location;lat;lon;timestamp;temperature;humidity
3792;DHT22;1911;53.768;11.474;2023-01-01T00:01:57;11.90;99.90
3792;DHT22;1911;53.768;11.474;2023-01-01T00:04:22;11.80;99.90
3792;DHT22;1911;53.768;11.474;2023-01-01T00:06:48;11.80;99.90
3792;DHT22;1911;53.768;11.474;2023-01-01T00:09:14;11.80;99.90
3792;DHT22;1911;53.768;11.474;2023-01-01T00:11:58;11.80;99.90
3792;DHT22;1911;53.768;11.474;2023-01-01T00:14:24;12.40;99.90
3792;DHT22;1911;53.768;11.474;2023-01-01T00:16:49;12.50;99.90
3792;DHT22;1911;53.768;11.474;2023-01-01T00:19:15;12.50;99.90
3792;DHT22;1911;53.768;11.474;2023-01-01T00:21:41;12.40;99.90
3792;DHT22;1911;53.768;11.474;2023-01-01T00:24:08;12.50;99.90
3792;DHT22;1911;53.768;11.474;2023-01-01T00:26:34;12.50;99.90
3792;DHT22;1911;53.768;11.474;2023-01-01T00:28:59;12.60;99.90
3792;DHT22;1911;53.768;11.474;2023-01-01T00:31:25;12.70;99.90
3792;DHT22;1911;53.768;11.474;2023-01-01T00:33:53;12.50;99.90
3792;DHT22;1911;53.768;11.474;2023-01-01T00:36:20;12.40;99.90
3792;DHT22;1911;53.768;11.474;2023-01-01T00:38:46;12.40;99.90
3792;DHT22;1911;53.768;11.474;2023-01-01T00:41:13;12.30;99.90
3792;DHT22;1911;53.768;11.474;2023-01-01T00:43:39;12.40;99.90
3792;DHT22;1911;53.768;11.474;2023-01-01T00:46:05;12.50;99.90
3792;DHT22;1911;53.768;11.474;2023-01-01T00:48:32;12.60;99.90
3792;DHT22;1911;53.768;11.474;2023-01-01T00:50:57;12.80;99.90
3792;DHT22;1911;53.768;11.474;2023-01-01T00:53:23;12.70;99.90
3792;DHT22;1911;53.768;11.474;2023-01-01T00:55:50;12.80;99.90
3792;DHT22;1911;53.768;11.474;2023-01-01T00:58:18;12.80;99.90
3792;DHT22;1911;53.768;11.474;2023-01-01T01:00:44;12.90;99.90
3792;DHT22;1911;53.768;11.474;2023-01-01T01:03:11;12.90;99.90
3792;DHT22;1911;53.768;11.474;2023-01-01T01:05:53;12.90;99.90
3792;DHT22;1911;53.768;11.474;2023-01-01T01:08:19;12.80;99.90
3792;DHT22;1911;53.768;11.474;2023-01-01T01:10:44;12.80;99.90
3792;DHT22;1911;53.768;11.474;2023-01-01T01:13:10;12.80;99.90
3792;DHT22;1911;53.768;11.474;2023-01-01T01:15:37;13.00;99.90
3792;DHT22;1911;53.768;11.474;2023-01-01T01:18:02;13.10;99.90
3792;DHT22;1911;53.768;11.474;2023-01-01T01:20:28;13.10;99.90
3792;DHT22;1911;53.768;11.474;2023-01-01T01:22:54;13.10;99.90
3792;DHT22;1911;53.768;11.474;2023-01-01T01:25:20;13.20;99.90
3792;DHT22;1911;53.768;11.474;2023-01-01T01:27:46;13.20;99.90
3792;DHT22;1911;53.768;11.474;2023-01-01T01:30:11;13.30;99.90
3792;DHT22;1911;53.768;11.474;2023-01-01T01:32:37;13.40;99.90
3792;DHT22;1911;53.768;11.474;2023-01-01T01:35:03;13.40;99.90
3792;DHT22;1911;53.768;11.474;2023-01-01T01:37:35;13.40;99.90
3792;DHT22;1911;53.768;11.474;2023-01-01T01:40:00;13.50;99.90
3792;DHT22;1911;53.768;11.474;2023-01-01T01:42:26;13.30;99.90
3792;DHT22;1911;53.768;11.474;2023-01-01T01:47:26;13.10;99.90
3792;DHT22;1911;53.768;11.474;2023-01-01T01:52:52;13.30;99.90
3792;DHT22;1911;53.768;11.474;2023-01-01T01:55:20;13.30;99.90
3792;DHT22;1911;53.768;11.474;2023-01-01T01:57:46;13.20;99.90
3792;DHT22;1911;53.768;11.474;2023-01-01T02:00:12;13.10;99.90
3792;DHT22;1911;53.768;11.474;2023-01-01T02:02:59;13.00;99.90
3792;DHT22;1911;53.768;11.474;2023-01-01T02:05:27;13.00;99.90
3792;DHT22;1911;53.768;11.474;2023-01-01T02:07:54;13.00;99.90
3792;DHT22;1911;53.768;11.474;2023-01-01T02:10:20;13.20;99.90
3792;DHT22;1911;53.768;11.474;2023-01-01T02:12:46;13.10;99.90
3792;DHT22;1911;53.768;11.474;2023-01-01T02:15:12;13.20;99.90
3792;DHT22;1911;53.768;11.474;2023-01-01T02:18:02;13.10;99.90
3792;DHT22;1911;53.768;11.474;2023-01-01T02:20:39;13.10;99.90
3792;DHT22;1911;53.768;11.474;2023-01-01T02:23:43;13.20;99.90
3792;DHT22;1911;53.768;11.474;2023-01-01T02:29:30;13.20;99.90
3792;DHT22;1911;53.768;11.474;2023-01-01T02:32:20;13.20;99.90
3792;DHT22;1911;53.768;11.474;2023-01-01T02:35:10;13.20;99.90
3792;DHT22;1911;53.768;11.474;2023-01-01T02:37:58;13.30;99.90
3792;DHT22;1911;53.768;11.474;2023-01-01T02:40:26;13.20;99.90
3792;DHT22;1911;53.768;11.474;2023-01-01T02:42:53;13.30;99.90
3792;DHT22;1911;53.768;11.474;2023-01-01T02:45:20;13.40;99.90
3792;DHT22;1911;53.768;11.474;2023-01-01T02:47:46;13.20;99.90
3792;DHT22;1911;53.768;11.474;2023-01-01T02:50:15;13.40;99.90
3792;DHT22;1911;53.768;11.474;2023-01-01T02:52:44;13.60;99.90
3792;DHT22;1911;53.768;11.474;2023-01-01T02:55:30;13.60;99.90
3792;DHT22;1911;53.768;11.474;2023-01-01T03:01:19;13.50;99.90
3792;DHT22;1911;53.768;11.474;2023-01-01T03:04:33;13.40;99.90
3792;DHT22;1911;53.768;11.474;2023-01-01T03:12:23;13.30;99.90
3792;DHT22;1911;53.768;11.474;2023-01-01T03:17:43;13.40;99.90
3792;DHT22;1911;53.768;11.474;2023-01-01T03:20:16;13.50;99.90
3792;DHT22;1911;53.768;11.474;2023-01-01T03:22:43;13.30;99.90
3792;DHT22;1911;53.768;11.474;2023-01-01T03:25:18;13.20;99.90
3792;DHT22;1911;53.768;11.474;2023-01-01T03:27:55;13.20;99.90
3792;DHT22;1911;53.768;11.474;2023-01-01T03:30:22;13.20;99.90
3792;DHT22;1911;53.768;11.474;2023-01-01T03:32:53;13.40;99.90
3792;DHT22;1911;53.768;11.474;2023-01-01T03:35:44;13.40;99.90
3792;DHT22;1911;53.768;11.474;2023-01-01T03:38:18;13.30;99.90
3792;DHT22;1911;53.768;11.474;2023-01-01T03:40:46;13.40;99.90
3792;DHT22;1911;53.768;11.474;2023-01-01T03:43:18;13.30;99.90
3792;DHT22;1911;53.768;11.474;2023-01-01T03:45:47;13.20;99.90
3792;DHT22;1911;53.768;11.474;2023-01-01T03:48:14;13.20;99.90
3792;DHT22;1911;53.768;11.474;2023-01-01T03:53:39;13.40;99.90
3792;DHT22;1911;53.768;11.474;2023-01-01T03:59:06;13.30;99.90
3792;DHT22;1911;53.768;11.474;2023-01-01T04:01:43;13.10;99.90
3792;DHT22;1911;53.768;11.474;2023-01-01T04:04:11;13.10;99.90
3792;DHT22;1911;53.768;11.474;2023-01-01T04:06:37;13.00;99.90
3792;DHT22;1911;53.768;11.474;2023-01-01T04:09:04;12.80;99.90
3792;DHT22;1911;53.768;11.474;2023-01-01T04:11:34;12.80;99.90
3792;DHT22;1911;53.768;11.474;2023-01-01T04:14:27;12.80;99.90
3792;DHT22;1911;53.768;11.474;2023-01-01T04:16:53;12.60;99.90
3792;DHT22;1911;53.768;11.474;2023-01-01T04:19:19;12.60;99.90
3792;DHT22;1911;53.768;11.474;2023-01-01T04:21:44;12.40;99.90
3792;DHT22;1911;53.768;11.474;2023-01-01T04:24:10;12.40;99.90
3792;DHT22;1911;53.768;11.474;2023-01-01T04:26:36;12.30;99.90
3792;DHT22;1911;53.768;11.474;2023-01-01T04:29:01;12.30;99.90
3792;DHT22;1911;53.768;11.474;2023-01-01T04:31:27;12.30;99.90
3792;DHT22;1911;53.768;11.474;2023-01-01T04:33:53;12.30;99.90
3792;DHT22;1911;53.768;11.474;2023-01-01T04:36:18;12.20;99.90
3792;DHT22;1911;53.768;11.474;2023-01-01T04:38:44;12.10;99.90
3792;DHT22;1911;53.768;11.474;2023-01-01T04:41:10;12.00;99.90
3792;DHT22;1911;53.768;11.474;2023-01-01T04:43:35;12.00;99.90
3792;DHT22;1911;53.768;11.474;2023-01-01T04:46:02;12.10;99.90
3792;DHT22;1911;53.768;11.474;2023-01-01T04:48:31;12.30;99.90
3792;DHT22;1911;53.768;11.474;2023-01-01T04:51:01;12.60;99.90
3792;DHT22;1911;53.768;11.474;2023-01-01T04:53:30;12.70;99.90
3792;DHT22;1911;53.768;11.474;2023-01-01T04:56:05;12.70;99.90
3792;DHT22;1911;53.768;11.474;2023-01-01T04:58:32;12.80;99.90
3792;DHT22;1911;53.768;11.474;2023-01-01T05:00:58;12.80;99.90
3792;DHT22;1911;53.768;11.474;2023-01-01T05:03:23;12.80;99.90
3792;DHT22;1911;53.768;11.474;2023-01-01T05:06:09;12.80;99.90
3792;DHT22;1911;53.768;11.474;2023-01-01T05:08:37;12.80;99.90
3792;DHT22;1911;53.768;11.474;2023-01-01T05:11:06;12.90;99.90
3792;DHT22;1911;53.768;11.474;2023-01-01T05:13:39;12.90;99.90
3792;DHT22;1911;53.768;11.474;2023-01-01T05:16:06;12.80;99.90
3792;DHT22;1911;53.768;11.474;2023-01-01T05:18:33;12.80;99.90
3792;DHT22;1911;53.768;11.474;2023-01-01T05:21:01;12.60;99.90
3792;DHT22;1911;53.768;11.474;2023-01-01T05:23:28;12.60;99.90
3792;DHT22;1911;53.768;11.474;2023-01-01T05:25:53;12.50;99.90
3792;DHT22;1911;53.768;11.474;2023-01-01T05:28:19;12.90;99.90
3792;DHT22;1911;53.768;11.474;2023-01-01T05:30:45;12.80;99.90
3792;DHT22;1911;53.768;11.474;2023-01-01T05:33:10;12.80;99.90
3792;DHT22;1911;53.768;11.474;2023-01-01T05:35:37;12.80;99.90
3792;DHT22;1911;53.768;11.474;2023-01-01T05:38:02;12.70;99.90
3792;DHT22;1911;53.768;11.474;2023-01-01T05:40:29;12.80;99.90
3792;DHT22;1911;53.768;11.474;2023-01-01T05:42:55;12.70;99.90
3792;DHT22;1911;53.768;11.474;2023-01-01T05:45:20;12.70;99.90
3792;DHT22;1911;53.768;11.474;2023-01-01T05:47:46;12.70;99.90
3792;DHT22;1911;53.768;11.474;2023-01-01T05:50:12;12.70;99.90
3792;DHT22;1911;53.768;11.474;2023-01-01T05:52:37;12.70;99.90
3792;DHT22;1911;53.768;11.474;2023-01-01T05:55:03;12.60;99.90
3792;DHT22;1911;53.768;11.474;2023-01-01T05:57:29;12.60;99.90
3792;DHT22;1911;53.768;11.474;2023-01-01T05:59:54;12.60;99.90
3792;DHT22;1911;53.768;11.474;2023-01-01T06:02:20;12.40;99.90
3792;DHT22;1911;53.768;11.474;2023-01-01T06:04:46;12.40;99.90
3792;DHT22;1911;53.768;11.474;2023-01-01T06:07:11;12.50;99.90
3792;DHT22;1911;53.768;11.474;2023-01-01T06:09:37;12.30;99.90
3792;DHT22;1911;53.768;11.474;2023-01-01T06:12:03;12.10;99.90
3792;DHT22;1911;53.768;11.474;2023-01-01T06:14:28;11.90;99.90
3792;DHT22;1911;53.768;11.474;2023-01-01T06:16:54;11.80;99.90
3792;DHT22;1911;53.768;11.474;2023-01-01T06:19:19;11.70;99.90
3792;DHT22;1911;53.768;11.474;2023-01-01T06:21:45;11.90;99.90
3792;DHT22;1911;53.768;11.474;2023-01-01T06:24:10;12.00;99.90
3792;DHT22;1911;53.768;11.474;2023-01-01T06:26:37;12.00;99.90
3792;DHT22;1911;53.768;11.474;2023-01-01T06:29:03;12.10;99.90
3792;DHT22;1911;53.768;11.474;2023-01-01T06:31:29;12.30;99.90
3792;DHT22;1911;53.768;11.474;2023-01-01T06:33:55;12.40;99.90
3792;DHT22;1911;53.768;11.474;2023-01-01T06:36:23;12.20;99.90
3792;DHT22;1911;53.768;11.474;2023-01-01T06:38:51;11.90;99.90
3792;DHT22;1911;53.768;11.474;2023-01-01T06:41:19;11.70;99.90
3792;DHT22;1911;53.768;11.474;2023-01-01T06:43:46;11.60;99.90
3792;DHT22;1911;53.768;11.474;2023-01-01T06:46:19;11.50;99.90
3792;DHT22;1911;53.768;11.474;2023-01-01T06:48:46;11.60;99.90
3792;DHT22;1911;53.768;11.474;2023-01-01T06:51:17;11.70;99.90
3792;DHT22;1911;53.768;11.474;2023-01-01T06:53:44;11.70;99.90
3792;DHT22;1911;53.768;11.474;2023-01-01T06:56:10;12.10;99.90
3792;DHT22;1911;53.768;11.474;2023-01-01T06:58:36;12.30;99.90
3792;DHT22;1911;53.768;11.474;2023-01-01T07:01:08;12.20;99.90
3792;DHT22;1911;53.768;11.474;2023-01-01T07:03:35;12.30;99.90
3792;DHT22;1911;53.768;11.474;2023-01-01T07:06:01;12.30;99.90
3792;DHT22;1911;53.768;11.474;2023-01-01T07:08:26;12.20;99.90
3792;DHT22;1911;53.768;11.474;2023-01-01T07:10:52;12.00;99.90
3792;DHT22;1911;53.768;11.474;2023-01-01T07:13:17;12.00;99.90
3792;DHT22;1911;53.768;11.474;2023-01-01T07:15:43;12.00;99.90
3792;DHT22;1911;53.768;11.474;2023-01-01T07:18:09;11.90;99.90
3792;DHT22;1911;53.768;11.474;2023-01-01T07:20:35;11.70;99.90
3792;DHT22;1911;53.768;11.474;2023-01-01T07:23:18;11.70;99.90
3792;DHT22;1911;53.768;11.474;2023-01-01T07:25:43;11.80;99.90
3792;DHT22;1911;53.768;11.474;2023-01-01T07:28:17;11.90;99.90
3792;DHT22;1911;53.768;11.474;2023-01-01T07:31:04;12.00;99.90
3792;DHT22;1911;53.768;11.474;2023-01-01T07:33:33;12.30;99.90
3792;DHT22;1911;53.768;11.474;2023-01-01T07:36:00;12.30;99.90
3792;DHT22;1911;53.768;11.474;2023-01-01T07:38:26;12.10;99.90
3792;DHT22;1911;53.768;11.474;2023-01-01T07:43:48;12.10;99.90
3792;DHT22;1911;53.768;11.474;2023-01-01T07:46:17;12.00;99.90
3792;DHT22;1911;53.768;11.474;2023-01-01T07:48:43;12.10;99.90
3792;DHT22;1911;53.768;11.474;2023-01-01T07:51:09;12.20;99.90
3792;DHT22;1911;53.768;11.474;2023-01-01T07:53:35;12.30;99.90
3792;DHT22;1911;53.768;11.474;2023-01-01T07:56:01;12.40;99.90
3792;DHT22;1911;53.768;11.474;2023-01-01T07:58:33;12.60;99.90
3792;DHT22;1911;53.768;11.474;2023-01-01T08:00:58;12.50;99.90
3792;DHT22;1911;53.768;11.474;2023-01-01T08:03:24;12.50;99.90
3792;DHT22;1911;53.768;11.474;2023-01-01T08:05:49;12.50;99.90
3792;DHT22;1911;53.768;11.474;2023-01-01T08:08:18;12.40;99.90
3792;DHT22;1911;53.768;11.474;2023-01-01T08:10:47;12.50;99.90
3792;DHT22;1911;53.768;11.474;2023-01-01T08:13:14;12.60;99.90
3792;DHT22;1911;53.768;11.474;2023-01-01T08:15:39;12.60;99.90
3792;DHT22;1911;53.768;11.474;2023-01-01T08:18:05;12.60;99.90
3792;DHT22;1911;53.768;11.474;2023-01-01T08:20:32;12.70;99.90
3792;DHT22;1911;53.768;11.474;2023-01-01T08:22:58;12.90;99.90
3792;DHT22;1911;53.768;11.474;2023-01-01T08:25:24;13.00;99.90
3792;DHT22;1911;53.768;11.474;2023-01-01T08:27:52;12.90;99.90
3792;DHT22;1911;53.768;11.474;2023-01-01T08:30:19;12.90;99.90
3792;DHT22;1911;53.768;11.474;2023-01-01T08:32:49;12.90;99.90
3792;DHT22;1911;53.768;11.474;2023-01-01T08:35:19;12.80;99.90
3792;DHT22;1911;53.768;11.474;2023-01-01T08:37:59;12.80;99.90
3792;DHT22;1911;53.768;11.474;2023-01-01T08:40:25;12.80;99.90
3792;DHT22;1911;53.768;11.474;2023-01-01T08:42:55;13.00;99.90
3792;DHT22;1911;53.768;11.474;2023-01-01T08:45:22;13.00;99.90
3792;DHT22;1911;53.768;11.474;2023-01-01T08:48:13;12.90;99.90
3792;DHT22;1911;53.768;11.474;2023-01-01T08:51:05;13.00;99.90
3792;DHT22;1911;53.768;11.474;2023-01-01T08:53:31;12.90;99.90
3792;DHT22;1911;53.768;11.474;2023-01-01T08:56:06;12.90;99.90
3792;DHT22;1911;53.768;11.474;2023-01-01T08:58:34;12.90;99.90
3792;DHT22;1911;53.768;11.474;2023-01-01T09:01:00;13.00;99.90
3792;DHT22;1911;53.768;11.474;2023-01-01T09:03:26;12.80;99.90
3792;DHT22;1911;53.768;11.474;2023-01-01T09:05:52;12.90;99.90
3792;DHT22;1911;53.768;11.474;2023-01-01T09:08:18;12.80;99.90
3792;DHT22;1911;53.768;11.474;2023-01-01T09:10:47;12.90;99.90
3792;DHT22;1911;53.768;11.474;2023-01-01T09:13:16;12.80;99.90
3792;DHT22;1911;53.768;11.474;2023-01-01T09:15:43;12.80;99.90
3792;DHT22;1911;53.768;11.474;2023-01-01T09:18:10;12.90;99.90
3792;DHT22;1911;53.768;11.474;2023-01-01T09:20:37;13.00;99.90
3792;DHT22;1911;53.768;11.474;2023-01-01T09:23:04;13.20;99.90
3792;DHT22;1911;53.768;11.474;2023-01-01T09:25:31;13.10;99.90
3792;DHT22;1911;53.768;11.474;2023-01-01T09:28:00;13.00;99.90
3792;DHT22;1911;53.768;11.474;2023-01-01T09:30:26;12.90;99.90
3792;DHT22;1911;53.768;11.474;2023-01-01T09:32:55;13.10;99.90
3792;DHT22;1911;53.768;11.474;2023-01-01T09:35:21;13.10;99.90
3792;DHT22;1911;53.768;11.474;2023-01-01T09:37:46;13.20;99.90
3792;DHT22;1911;53.768;11.474;2023-01-01T09:41:04;13.20;99.90
3792;DHT22;1911;53.768;11.474;2023-01-01T09:46:28;13.10;99.90
3792;DHT22;1911;53.768;11.474;2023-01-01T09:48:58;13.10;99.90
3792;DHT22;1911;53.768;11.474;2023-01-01T09:51:29;13.10;99.90
3792;DHT22;1911;53.768;11.474;2023-01-01T09:54:12;13.00;99.90
3792;DHT22;1911;53.768;11.474;2023-01-01T09:56:47;12.90;99.90
3792;DHT22;1911;53.768;11.474;2023-01-01T10:06:18;13.00;99.90
3792;DHT22;1911;53.768;11.474;2023-01-01T10:09:42;13.20;99.90
3792;DHT22;1911;53.768;11.474;2023-01-01T10:15:33;13.30;99.90
3792;DHT22;1911;53.768;11.474;2023-01-01T10:18:33;13.30;99.90
3792;DHT22;1911;53.768;11.474;2023-01-01T10:32:36;13.10;99.90
3792;DHT22;1911;53.768;11.474;2023-01-01T10:35:43;13.20;99.90
3792;DHT22;1911;53.768;11.474;2023-01-01T10:38:26;13.30;99.90
3792;DHT22;1911;53.768;11.474;2023-01-01T10:41:13;13.30;99.90
3792;DHT22;1911;53.768;11.474;2023-01-01T10:43:57;13.30;99.90
3792;DHT22;1911;53.768;11.474;2023-01-01T10:46:24;13.20;99.90
3792;DHT22;1911;53.768;11.474;2023-01-01T10:49:06;13.20;99.90
3792;DHT22;1911;53.768;11.474;2023-01-01T10:51:32;13.30;99.90
3792;DHT22;1911;53.768;11.474;2023-01-01T10:53:59;13.30;99.90
3792;DHT22;1911;53.768;11.474;2023-01-01T10:56:38;13.30;99.90
3792;DHT22;1911;53.768;11.474;2023-01-01T11:02:25;13.10;99.90
3792;DHT22;1911;53.768;11.474;2023-01-01T11:05:13;13.00;99.90
3792;DHT22;1911;53.768;11.474;2023-01-01T11:07:40;13.00;99.90
3792;DHT22;1911;53.768;11.474;2023-01-01T11:10:18;12.90;99.90
3792;DHT22;1911;53.768;11.474;2023-01-01T11:12:44;12.90;99.90
3792;DHT22;1911;53.768;11.474;2023-01-01T11:15:36;12.90;99.90
3792;DHT22;1911;53.768;11.474;2023-01-01T11:18:04;13.00;99.90
3792;DHT22;1911;53.768;11.474;2023-01-01T11:20:32;13.10;99.90
3792;DHT22;1911;53.768;11.474;2023-01-01T11:22:58;13.20;99.90
3792;DHT22;1911;53.768;11.474;2023-01-01T11:25:24;13.10;99.90
3792;DHT22;1911;53.768;11.474;2023-01-01T11:27:51;13.20;99.90
3792;DHT22;1911;53.768;11.474;2023-01-01T11:30:26;13.20;99.90
3792;DHT22;1911;53.768;11.474;2023-01-01T11:32:59;13.20;99.90
3792;DHT22;1911;53.768;11.474;2023-01-01T11:35:35;13.10;99.90
3792;DHT22;1911;53.768;11.474;2023-01-01T11:38:21;13.10;99.90
3792;DHT22;1911;53.768;11.474;2023-01-01T11:40:51;13.10;99.90
3792;DHT22;1911;53.768;11.474;2023-01-01T11:43:22;13.00;99.90
3792;DHT22;1911;53.768;11.474;2023-01-01T11:45:53;13.00;99.90
3792;DHT22;1911;53.768;11.474;2023-01-01T11:51:41;13.00;99.90
3792;DHT22;1911;53.768;11.474;2023-01-01T11:56:52;13.00;99.90
3792;DHT22;1911;53.768;11.474;2023-01-01T11:59:29;12.80;99.90
3792;DHT22;1911;53.768;11.474;2023-01-01T12:01:58;12.80;99.90
3792;DHT22;1911;53.768;11.474;2023-01-01T12:07:21;12.70;99.90
3792;DHT22;1911;53.768;11.474;2023-01-01T12:12:40;12.70;99.90
3792;DHT22;1911;53.768;11.474;2023-01-01T12:15:30;12.70;99.90
3792;DHT22;1911;53.768;11.474;2023-01-01T12:18:44;12.70;99.90
3792;DHT22;1911;53.768;11.474;2023-01-01T12:21:18;12.80;99.90
3792;DHT22;1911;53.768;11.474;2023-01-01T12:23:48;12.80;99.90
3792;DHT22;1911;53.768;11.474;2023-01-01T12:26:44;12.70;99.90
3792;DHT22;1911;53.768;11.474;2023-01-01T12:29:39;12.80;99.90
3792;DHT22;1911;53.768;11.474;2023-01-01T12:43:40;12.80;99.90
3792;DHT22;1911;53.768;11.474;2023-01-01T12:46:43;12.80;99.90
3792;DHT22;1911;53.768;11.474;2023-01-01T12:52:34;12.80;99.90
3792;DHT22;1911;53.768;11.474;2023-01-01T12:58:17;12.70;99.90
3792;DHT22;1911;53.768;11.474;2023-01-01T13:00:58;12.60;99.90
3792;DHT22;1911;53.768;11.474;2023-01-01T13:03:31;12.50;99.90
3792;DHT22;1911;53.768;11.474;2023-01-01T13:05:59;12.50;99.90
3792;DHT22;1911;53.768;11.474;2023-01-01T13:08:27;12.40;99.90
3792;DHT22;1911;53.768;11.474;2023-01-01T13:10:56;12.40;99.90
3792;DHT22;1911;53.768;11.474;2023-01-01T13:13:22;12.40;99.90
3792;DHT22;1911;53.768;11.474;2023-01-01T13:15:54;12.30;99.90
3792;DHT22;1911;53.768;11.474;2023-01-01T13:18:33;12.40;99.90
3792;DHT22;1911;53.768;11.474;2023-01-01T13:21:34;12.30;99.90
3792;DHT22;1911;53.768;11.474;2023-01-01T13:24:18;12.30;99.90
3792;DHT22;1911;53.768;11.474;2023-01-01T13:26:44;12.20;99.90
3792;DHT22;1911;53.768;11.474;2023-01-01T13:45:17;11.80;99.90
3792;DHT22;1911;53.768;11.474;2023-01-01T13:48:25;11.80;99.90
3792;DHT22;1911;53.768;11.474;2023-01-01T14:04:38;11.60;99.90
3792;DHT22;1911;53.768;11.474;2023-01-01T14:07:32;11.60;99.90
3792;DHT22;1911;53.768;11.474;2023-01-01T14:12:45;11.60;99.90
3792;DHT22;1911;53.768;11.474;2023-01-01T14:15:38;11.50;99.90
3792;DHT22;1911;53.768;11.474;2023-01-01T14:18:37;11.40;99.90
3792;DHT22;1911;53.768;11.474;2023-01-01T14:21:11;11.40;99.90
3792;DHT22;1911;53.768;11.474;2023-01-01T14:23:49;11.40;99.90
3792;DHT22;1911;53.768;11.474;2023-01-01T14:26:23;11.40;99.90
3792;DHT22;1911;53.768;11.474;2023-01-01T14:28:55;11.40;99.90
3792;DHT22;1911;53.768;11.474;2023-01-01T14:31:23;11.40;99.90
3792;DHT22;1911;53.768;11.474;2023-01-01T14:33:50;11.30;99.90
3792;DHT22;1911;53.768;11.474;2023-01-01T14:36:21;11.20;99.90
3792;DHT22;1911;53.768;11.474;2023-01-01T14:38:50;11.20;99.90
3792;DHT22;1911;53.768;11.474;2023-01-01T14:43:57;11.20;99.90
3792;DHT22;1911;53.768;11.474;2023-01-01T14:46:27;11.10;99.90
3792;DHT22;1911;53.768;11.474;2023-01-01T14:48:56;11.00;99.90
3792;DHT22;1911;53.768;11.474;2023-01-01T14:51:29;11.00;99.90
3792;DHT22;1911;53.768;11.474;2023-01-01T14:53:58;11.00;99.90
3792;DHT22;1911;53.768;11.474;2023-01-01T15:03:31;11.00;99.90
3792;DHT22;1911;53.768;11.474;2023-01-01T15:06:38;10.90;99.90
3792;DHT22;1911;53.768;11.474;2023-01-01T15:19:29;10.50;99.90
3792;DHT22;1911;53.768;11.474;2023-01-01T15:24:56;10.20;99.90
3792;DHT22;1911;53.768;11.474;2023-01-01T15:27:31;10.10;99.90
3792;DHT22;1911;53.768;11.474;2023-01-01T15:29:58;10.10;99.90
3792;DHT22;1911;53.768;11.474;2023-01-01T15:40:17;9.80;99.90
3792;DHT22;1911;53.768;11.474;2023-01-01T16:30:19;8.30;99.90
3792;DHT22;1911;53.768;11.474;2023-01-01T16:36:39;8.30;99.90
3792;DHT22;1911;53.768;11.474;2023-01-01T16:39:15;8.30;99.90
3792;DHT22;1911;53.768;11.474;2023-01-01T16:45:16;8.20;99.90
3792;DHT22;1911;53.768;11.474;2023-01-01T16:47:43;8.20;99.90
3792;DHT22;1911;53.768;11.474;2023-01-01T16:50:10;8.40;99.90
3792;DHT22;1911;53.768;11.474;2023-01-01T16:52:58;8.50;99.90
3792;DHT22;1911;53.768;11.474;2023-01-01T16:55:24;8.70;99.90
3792;DHT22;1911;53.768;11.474;2023-01-01T16:57:49;8.70;99.90
3792;DHT22;1911;53.768;11.474;2023-01-01T17:00:15;8.70;99.90
3792;DHT22;1911;53.768;11.474;2023-01-01T17:02:41;8.70;99.90
3792;DHT22;1911;53.768;11.474;2023-01-01T17:05:07;8.60;99.90
3792;DHT22;1911;53.768;11.474;2023-01-01T17:07:33;8.40;99.90
3792;DHT22;1911;53.768;11.474;2023-01-01T17:09:58;8.30;99.90
3792;DHT22;1911;53.768;11.474;2023-01-01T17:12:24;8.30;99.90
3792;DHT22;1911;53.768;11.474;2023-01-01T17:14:49;8.20;99.90
3792;DHT22;1911;53.768;11.474;2023-01-01T17:17:15;8.10;99.90
3792;DHT22;1911;53.768;11.474;2023-01-01T17:19:41;8.10;99.90
3792;DHT22;1911;53.768;11.474;2023-01-01T17:22:08;8.00;99.90
3792;DHT22;1911;53.768;11.474;2023-01-01T17:24:34;8.00;99.90
3792;DHT22;1911;53.768;11.474;2023-01-01T17:26:59;7.90;99.90
3792;DHT22;1911;53.768;11.474;2023-01-01T17:29:25;7.90;99.90
3792;DHT22;1911;53.768;11.474;2023-01-01T17:31:51;7.90;99.90
3792;DHT22;1911;53.768;11.474;2023-01-01T17:34:17;8.00;99.90
3792;DHT22;1911;53.768;11.474;2023-01-01T17:36:43;8.00;99.90
3792;DHT22;1911;53.768;11.474;2023-01-01T17:39:13;8.00;99.90
3792;DHT22;1911;53.768;11.474;2023-01-01T17:41:40;8.00;99.90
3792;DHT22;1911;53.768;11.474;2023-01-01T17:44:06;8.00;99.90
3792;DHT22;1911;53.768;11.474;2023-01-01T17:46:32;8.10;99.90
3792;DHT22;1911;53.768;11.474;2023-01-01T17:48:59;8.20;99.90
3792;DHT22;1911;53.768;11.474;2023-01-01T17:51:25;8.30;99.90
3792;DHT22;1911;53.768;11.474;2023-01-01T17:53:52;8.30;99.90
3792;DHT22;1911;53.768;11.474;2023-01-01T17:56:19;8.30;99.90
3792;DHT22;1911;53.768;11.474;2023-01-01T17:58:47;8.10;99.90
3792;DHT22;1911;53.768;11.474;2023-01-01T18:03:50;8.10;99.90
3792;DHT22;1911;53.768;11.474;2023-01-01T18:06:17;8.10;99.90
3792;DHT22;1911;53.768;11.474;2023-01-01T18:08:43;8.10;99.90
3792;DHT22;1911;53.768;11.474;2023-01-01T18:11:09;8.10;99.90
3792;DHT22;1911;53.768;11.474;2023-01-01T18:13:34;8.00;99.90
3792;DHT22;1911;53.768;11.474;2023-01-01T18:16:07;7.90;99.90
3792;DHT22;1911;53.768;11.474;2023-01-01T18:18:39;7.70;99.90
3792;DHT22;1911;53.768;11.474;2023-01-01T18:21:11;7.70;99.90
3792;DHT22;1911;53.768;11.474;2023-01-01T18:23:44;7.70;99.90
3792;DHT22;1911;53.768;11.474;2023-01-01T18:26:11;7.70;99.90
3792;DHT22;1911;53.768;11.474;2023-01-01T18:28:37;7.70;99.90
3792;DHT22;1911;53.768;11.474;2023-01-01T18:31:04;7.80;99.90
3792;DHT22;1911;53.768;11.474;2023-01-01T18:33:30;7.90;99.90
3792;DHT22;1911;53.768;11.474;2023-01-01T18:35:56;7.90;99.90
3792;DHT22;1911;53.768;11.474;2023-01-01T18:38:22;8.00;99.90
3792;DHT22;1911;53.768;11.474;2023-01-01T18:43:44;8.20;99.90
3792;DHT22;1911;53.768;11.474;2023-01-01T18:46:10;8.20;99.90
3792;DHT22;1911;53.768;11.474;2023-01-01T18:48:36;8.20;99.90
3792;DHT22;1911;53.768;11.474;2023-01-01T18:51:09;8.20;99.90
3792;DHT22;1911;53.768;11.474;2023-01-01T18:53:37;8.20;99.90
3792;DHT22;1911;53.768;11.474;2023-01-01T18:56:11;8.30;99.90
3792;DHT22;1911;53.768;11.474;2023-01-01T18:58:40;8.40;99.90
3792;DHT22;1911;53.768;11.474;2023-01-01T19:01:13;8.50;99.90
3792;DHT22;1911;53.768;11.474;2023-01-01T19:03:39;8.50;99.90
3792;DHT22;1911;53.768;11.474;2023-01-01T19:06:30;8.40;99.90
3792;DHT22;1911;53.768;11.474;2023-01-01T19:09:20;8.40;99.90
3792;DHT22;1911;53.768;11.474;2023-01-01T19:11:51;8.30;99.90
3792;DHT22;1911;53.768;11.474;2023-01-01T19:14:21;8.30;99.90
3792;DHT22;1911;53.768;11.474;2023-01-01T19:16:50;8.30;99.90
3792;DHT22;1911;53.768;11.474;2023-01-01T19:19:21;8.30;99.90
3792;DHT22;1911;53.768;11.474;2023-01-01T19:21:48;8.30;99.90
3792;DHT22;1911;53.768;11.474;2023-01-01T19:24:29;8.30;99.90
3792;DHT22;1911;53.768;11.474;2023-01-01T19:27:05;8.40;99.90
3792;DHT22;1911;53.768;11.474;2023-01-01T19:29:38;8.30;99.90
3792;DHT22;1911;53.768;11.474;2023-01-01T19:32:04;8.30;99.90
3792;DHT22;1911;53.768;11.474;2023-01-01T19:34:30;8.20;99.90
3792;DHT22;1911;53.768;11.474;2023-01-01T19:36:59;8.20;99.90
3792;DHT22;1911;53.768;11.474;2023-01-01T19:39:25;8.20;99.90
3792;DHT22;1911;53.768;11.474;2023-01-01T19:41:51;8.20;99.90
3792;DHT22;1911;53.768;11.474;2023-01-01T19:44:17;8.10;99.90